createdAt,value
2022-09-05T00:04:24.588Z,10.20
2022-09-05T00:09:48.078Z,10.57
2022-09-05T00:15:16.597Z,11.43
2022-09-05T00:24:17.106Z,11.03
2022-09-05T00:26:09.426Z,11.93
2022-09-05T00:31:53.492Z,10.90
2022-09-05T00:36:59.427Z,11.43
2022-09-05T00:42:08.633Z,11.17
2022-09-05T00:47:19.659Z,14.20
2022-09-05T00:52:32.116Z,12.90
2022-09-05T00:57:59.740Z,12.67
2022-09-05T01:03:19.606Z,12.83
2022-09-05T01:08:42.251Z,12.87
2022-09-05T01:13:51.428Z,11.57
2022-09-05T01:19:15.852Z,12.27
2022-09-05T01:24:37.159Z,13.60
2022-09-05T01:29:47.354Z,13.13
2022-09-05T01:35:00.905Z,11.90
2022-09-05T01:40:17.301Z,12.80
2022-09-05T01:45:38.740Z,12.03
2022-09-05T01:50:51.621Z,15.00
2022-09-05T01:56:25.133Z,12.93
2022-09-05T02:01:45.522Z,11.50
2022-09-05T02:07:19.245Z,12.17
2022-09-05T02:12:31.680Z,12.27
2022-09-05T02:17:51.244Z,15.50
2022-09-05T02:23:04.385Z,13.00
2022-09-05T02:28:34.088Z,11.60
2022-09-05T02:33:47.474Z,12.63
2022-09-05T02:45:02.628Z,13.10
2022-09-05T02:45:18.999Z,13.17
2022-09-05T02:51:12.809Z,16.27
2022-09-05T02:57:42.882Z,12.90
2022-09-05T03:01:15.237Z,17.37
2022-09-05T03:06:35.137Z,13.57
2022-09-05T03:12:29.130Z,12.90
2022-09-05T03:17:55.663Z,14.07
2022-09-05T03:23:50.507Z,13.17
2022-09-05T03:29:15.064Z,13.37
2022-09-05T03:34:53.644Z,13.20
2022-09-05T03:40:28.279Z,15.43
2022-09-05T03:45:52.964Z,13.20
2022-09-05T03:57:08.213Z,14.47
2022-09-05T03:57:18.761Z,13.80
2022-09-05T04:08:06.332Z,12.70
2022-09-05T04:08:23.962Z,14.93
2022-09-05T04:13:25.767Z,13.90
2022-09-05T04:18:35.345Z,14.60
2022-09-05T04:23:48.688Z,15.67
2022-09-05T04:29:04.372Z,14.03
2022-09-05T04:34:25.124Z,14.20
2022-09-05T04:39:29.602Z,13.53
2022-09-05T04:44:38.725Z,16.23
2022-09-05T04:49:44.980Z,16.60
2022-09-05T04:54:53.445Z,13.70
2022-09-05T05:04:52.142Z,18.97
2022-09-05T05:06:14.284Z,15.17
2022-09-05T05:17:07.568Z,15.30
2022-09-05T05:18:08.468Z,18.73
2022-09-05T05:22:07.880Z,20.20
2022-09-05T05:27:19.048Z,15.60
2022-09-05T05:32:45.616Z,17.90
2022-09-05T05:37:54.012Z,14.23
2022-09-05T05:43:16.091Z,17.97
2022-09-05T05:48:37.529Z,19.50
2022-09-05T05:53:52.718Z,15.73
2022-09-05T05:59:23.967Z,17.73
2022-09-05T06:05:10.252Z,17.37
2022-09-05T06:14:55.516Z,16.27
2022-09-05T06:16:36.567Z,22.90
2022-09-05T06:22:26.531Z,16.00
2022-09-05T06:28:02.225Z,18.77
2022-09-05T06:33:33.499Z,15.37
2022-09-05T06:39:00.464Z,15.23
2022-09-05T06:44:31.218Z,18.77
2022-09-05T06:49:48.782Z,20.00
2022-09-05T06:55:30.972Z,21.20
2022-09-05T07:00:39.196Z,15.40
2022-09-05T07:05:50.717Z,13.57
2022-09-05T07:11:15.882Z,19.33
2022-09-05T07:16:37.332Z,14.63
2022-09-05T07:21:47.078Z,13.93
2022-09-05T07:26:55.017Z,14.50
2022-09-05T07:31:59.941Z,18.17
2022-09-05T07:37:14.615Z,17.50
2022-09-05T07:42:26.213Z,15.67
2022-09-05T07:47:32.414Z,17.53
2022-09-05T07:56:54.031Z,17.33
2022-09-05T07:58:15.485Z,13.77
2022-09-05T08:03:18.915Z,18.00
2022-09-05T08:08:26.188Z,16.53
2022-09-05T08:13:48.557Z,17.97
2022-09-05T08:18:56.076Z,18.50
2022-09-05T08:24:13.786Z,18.17
2022-09-05T08:29:32.041Z,16.17
2022-09-05T08:34:44.536Z,16.10
2022-09-05T08:39:49.971Z,20.40
2022-09-05T08:46:42.887Z,17.47
2022-09-05T08:51:03.687Z,18.27
2022-09-05T08:56:18.084Z,22.20
2022-09-05T09:01:36.800Z,16.60
2022-09-05T09:07:36.776Z,16.00
2022-09-05T09:13:03.331Z,15.97
2022-09-05T09:18:14.884Z,15.57
2022-09-05T09:23:32.962Z,15.50
2022-09-05T09:28:51.399Z,13.82
2022-09-05T09:34:09.337Z,14.23
2022-09-05T09:39:38.745Z,15.98
2022-09-05T09:45:22.959Z,16.70
2022-09-05T09:50:58.963Z,15.15
2022-09-05T09:56:44.282Z,13.75
2022-09-05T10:02:07.333Z,14.82
2022-09-05T10:10:49.903Z,12.40
2022-09-05T10:13:36.285Z,12.63
2022-09-05T10:18:48.818Z,11.88
2022-09-05T10:24:19.148Z,11.82
2022-09-05T10:29:44.096Z,12.07
2022-09-05T10:35:13.600Z,11.65
2022-09-05T10:40:21.899Z,11.95
2022-09-05T10:45:37.900Z,11.57
2022-09-05T10:50:45.017Z,8.98
2022-09-05T10:56:01.987Z,7.18
2022-09-05T11:02:21.508Z,7.20
2022-09-05T11:06:53.396Z,8.90
2022-09-05T11:12:11.825Z,10.35
2022-09-05T11:17:28.067Z,10.48
2022-09-05T11:22:38.124Z,9.93
2022-09-05T11:27:46.861Z,9.98
2022-09-05T11:39:48.892Z,10.85
2022-09-05T11:40:04.813Z,9.93
2022-09-05T11:44:36.091Z,9.55
2022-09-05T11:50:21.090Z,10.48
2022-09-05T11:55:47.983Z,8.68
2022-09-05T12:01:41.517Z,9.23
2022-09-05T12:06:57.336Z,7.88
2022-09-05T12:12:18.689Z,8.30
2022-09-05T12:17:51.292Z,7.20
2022-09-05T12:22:59.116Z,8.07
2022-09-05T12:29:26.807Z,8.93
2022-09-05T12:36:08.711Z,7.80
2022-09-05T12:41:34.232Z,8.45
2022-09-05T12:44:44.840Z,8.88
2022-09-05T12:50:03.601Z,9.05
2022-09-05T12:55:27.086Z,9.38
2022-09-05T13:03:01.348Z,10.60
2022-09-05T13:06:19.461Z,10.50
2022-09-05T13:14:50.585Z,10.77
2022-09-05T13:16:57.826Z,11.68
2022-09-05T13:22:04.765Z,12.30
2022-09-05T13:27:13.751Z,11.45
2022-09-05T13:38:13.077Z,11.32
2022-09-05T13:38:15.036Z,11.07
2022-09-05T13:43:14.064Z,13.90
2022-09-05T13:49:22.654Z,16.15
2022-09-05T13:54:27.778Z,12.05
2022-09-05T13:59:42.383Z,12.05
2022-09-05T14:05:19.634Z,11.10
2022-09-05T14:11:06.363Z,10.90
2022-09-05T14:16:15.844Z,12.95
2022-09-05T14:21:19.632Z,9.75
2022-09-05T14:26:29.543Z,10.23
2022-09-05T14:37:52.441Z,10.57
2022-09-05T14:37:52.921Z,10.90
2022-09-05T14:43:05.585Z,11.05
2022-09-05T14:48:39.349Z,10.48
2022-09-05T14:54:00.466Z,10.88
2022-09-05T15:02:49.443Z,12.10
2022-09-05T15:04:45.638Z,10.32
2022-09-05T15:12:14.822Z,10.43
2022-09-05T15:15:35.979Z,10.13
2022-09-05T15:20:41.100Z,9.98
2022-09-05T15:25:47.322Z,9.73
2022-09-05T15:31:01.202Z,10.45
2022-09-05T15:36:06.753Z,9.77
2022-09-05T15:41:20.591Z,9.20
2022-09-05T15:46:34.304Z,10.02
2022-09-05T15:51:45.940Z,12.67
2022-09-05T15:56:52.522Z,10.63
2022-09-05T16:02:00.585Z,9.50
2022-09-05T16:10:42.034Z,10.40
2022-09-05T16:12:36.720Z,11.40
2022-09-05T16:23:18.357Z,9.90
2022-09-05T16:23:39.372Z,11.50
2022-09-05T16:28:42.797Z,9.63
2022-09-05T16:33:48.564Z,11.03
2022-09-05T16:38:57.296Z,10.27
2022-09-05T16:44:04.485Z,9.37
2022-09-05T16:49:16.250Z,8.50
2022-09-05T16:54:27.032Z,8.20
2022-09-05T16:59:33.174Z,10.10
2022-09-05T17:05:03.472Z,9.00
2022-09-05T17:10:11.739Z,9.57
2022-09-05T17:15:18.180Z,11.07
2022-09-05T17:20:24.952Z,10.80
2022-09-05T17:29:24.595Z,12.90
2022-09-05T17:36:41.150Z,11.00
2022-09-05T17:42:15.081Z,12.87
2022-09-05T17:47:35.336Z,11.10
2022-09-05T17:53:26.602Z,13.70
2022-09-05T17:58:49.292Z,12.30
2022-09-05T18:04:16.268Z,12.83
2022-09-05T18:10:05.927Z,16.83
2022-09-05T18:15:19.985Z,13.13
2022-09-05T18:20:33.389Z,12.60
2022-09-05T18:25:49.256Z,13.53
2022-09-05T18:30:53.773Z,13.23
2022-09-05T18:36:35.300Z,14.70
2022-09-05T18:41:40.807Z,14.23
2022-09-05T18:46:49.835Z,13.43
2022-09-05T18:51:58.250Z,16.27
2022-09-05T18:57:19.962Z,14.93
2022-09-05T19:02:50.627Z,14.83
2022-09-05T19:07:59.489Z,16.60
2022-09-05T19:13:13.053Z,18.43
2022-09-05T19:18:26.823Z,17.00
2022-09-05T19:23:34.303Z,16.73
2022-09-05T19:36:44.047Z,17.50
2022-09-05T19:37:12.346Z,15.03
2022-09-05T19:43:07.444Z,16.10
2022-09-05T19:47:48.946Z,18.20
2022-09-05T19:50:29.321Z,14.57
2022-09-05T19:55:37.480Z,18.10
2022-09-05T20:00:42.165Z,16.10
2022-09-05T20:05:51.513Z,17.77
2022-09-05T20:11:01.700Z,17.63
2022-09-05T20:16:04.884Z,16.13
2022-09-05T20:21:11.929Z,16.70
2022-09-05T20:26:15.189Z,16.83
2022-09-05T20:31:25.250Z,15.97
2022-09-05T20:43:07.830Z,18.10
2022-09-05T20:43:21.935Z,17.87
2022-09-05T20:51:00.605Z,15.70
2022-09-05T20:54:20.157Z,17.47
2022-09-05T20:58:18.090Z,15.53
2022-09-05T21:03:27.953Z,15.87
2022-09-05T21:08:34.504Z,15.80
2022-09-05T21:13:52.596Z,15.30
2022-09-05T21:18:56.332Z,17.33
2022-09-05T21:24:23.998Z,17.90
2022-09-05T21:29:33.133Z,17.27
2022-09-05T21:34:44.806Z,16.33
2022-09-05T21:39:59.564Z,18.13
2022-09-05T21:47:44.088Z,16.40
2022-09-05T21:50:31.316Z,16.73
2022-09-05T21:59:21.572Z,15.50
2022-09-05T22:00:59.591Z,16.30
2022-09-05T22:06:07.273Z,17.93
2022-09-05T22:11:13.802Z,15.43
2022-09-05T22:16:17.082Z,16.97
2022-09-05T22:21:32.716Z,18.47
2022-09-05T22:26:46.370Z,16.87
2022-09-05T22:32:07.735Z,17.30
2022-09-05T22:37:10.838Z,15.53
2022-09-05T22:42:15.547Z,16.27
2022-09-05T22:47:19.945Z,15.70
2022-09-05T22:52:23.242Z,16.03
2022-09-05T22:57:27.514Z,19.07
2022-09-05T23:02:30.483Z,18.00
2022-09-05T23:07:33.605Z,17.80
2022-09-05T23:12:38.322Z,19.73
2022-09-05T23:17:41.272Z,18.63
2022-09-05T23:22:44.271Z,18.77
2022-09-05T23:27:48.882Z,22.13
2022-09-05T23:32:53.159Z,17.93
2022-09-05T23:37:56.200Z,18.50
2022-09-05T23:43:01.244Z,17.33
2022-09-05T23:48:04.685Z,15.40
2022-09-05T23:53:08.280Z,16.47
2022-09-05T23:58:13.580Z,18.30
